createdAt,value
2023-03-02T00:01:56.753Z,1.57
2023-03-02T00:04:36.173Z,1.57
2023-03-02T00:07:11.082Z,1.57
2023-03-02T00:09:39.493Z,1.59
2023-03-02T00:12:08.498Z,1.61
2023-03-02T00:14:38.167Z,1.62
2023-03-02T00:17:08.191Z,1.63
2023-03-02T00:19:37.122Z,1.62
2023-03-02T00:22:05.813Z,1.66
2023-03-02T00:24:33.988Z,1.67
2023-03-02T00:27:02.197Z,1.67
2023-03-02T00:29:30.439Z,1.68
2023-03-02T00:31:58.619Z,1.71
2023-03-02T00:34:26.705Z,1.70
2023-03-02T00:36:54.848Z,1.68
2023-03-02T00:39:23.133Z,1.67
2023-03-02T00:41:51.720Z,1.67
2023-03-02T00:44:20.338Z,1.68
2023-03-02T00:46:48.725Z,1.71
2023-03-02T00:49:17.280Z,1.72
2023-03-02T00:51:45.436Z,1.74
2023-03-02T00:54:13.762Z,1.76
2023-03-02T00:56:42.502Z,1.78
2023-03-02T00:59:28.697Z,1.79
2023-03-02T01:02:17.204Z,1.79
2023-03-02T01:04:46.456Z,1.80
2023-03-02T01:07:17.551Z,1.81
2023-03-02T01:09:46.094Z,1.82
2023-03-02T01:12:15.066Z,1.83
2023-03-02T01:14:47.257Z,1.84
2023-03-02T01:17:15.643Z,1.84
2023-03-02T01:19:45.032Z,1.81
2023-03-02T01:22:13.123Z,1.80
2023-03-02T01:24:41.264Z,1.79
2023-03-02T01:27:09.652Z,1.75
2023-03-02T01:29:38.134Z,1.70
2023-03-02T01:32:06.662Z,1.64
2023-03-02T01:34:34.917Z,1.58
2023-03-02T01:37:03.279Z,1.50
2023-03-02T01:39:31.384Z,1.42
2023-03-02T01:41:59.722Z,1.34
2023-03-02T01:44:37.269Z,1.25
2023-03-02T01:47:18.183Z,1.16
2023-03-02T01:49:58.575Z,1.04
2023-03-02T01:52:30.759Z,0.94
2023-03-02T01:55:03.720Z,0.85
2023-03-02T01:57:43.540Z,0.78
2023-03-02T02:00:16.142Z,0.70
2023-03-02T02:02:44.403Z,0.64
2023-03-02T02:05:18.996Z,0.59
2023-03-02T02:07:47.416Z,0.50
2023-03-02T02:10:17.056Z,0.44
2023-03-02T02:12:45.196Z,0.38
2023-03-02T02:15:13.477Z,0.30
2023-03-02T02:17:42.463Z,0.25
2023-03-02T02:20:24.179Z,0.20
2023-03-02T02:22:52.234Z,0.15
2023-03-02T02:25:36.587Z,0.10
2023-03-02T02:28:09.050Z,0.04
2023-03-02T02:30:40.506Z,-0.01
2023-03-02T02:33:17.046Z,-0.07
2023-03-02T02:35:48.097Z,-0.13
2023-03-02T02:38:19.485Z,-0.18
2023-03-02T02:41:00.536Z,-0.22
2023-03-02T02:43:33.230Z,-0.27
2023-03-02T02:46:03.046Z,-0.33
2023-03-02T02:48:32.749Z,-0.37
2023-03-02T02:51:03.037Z,-0.41
2023-03-02T02:53:59.034Z,-0.46
2023-03-02T02:56:36.609Z,-0.51
2023-03-02T02:59:17.772Z,-0.55
2023-03-02T03:01:47.889Z,-0.59
2023-03-02T03:04:22.395Z,-0.61
2023-03-02T03:06:56.791Z,-0.63
2023-03-02T03:09:26.404Z,-0.66
2023-03-02T03:12:03.063Z,-0.68
2023-03-02T03:14:36.205Z,-0.69
2023-03-02T03:17:12.612Z,-0.72
2023-03-02T03:19:47.725Z,-0.74
2023-03-02T03:22:17.630Z,-0.76
2023-03-02T03:24:47.164Z,-0.75
2023-03-02T03:27:16.325Z,-0.74
2023-03-02T03:29:48.588Z,-0.73
2023-03-02T03:32:19.372Z,-0.71
2023-03-02T03:34:48.472Z,-0.69
2023-03-02T03:37:22.747Z,-0.65
2023-03-02T03:39:51.455Z,-0.62
2023-03-02T03:42:20.086Z,-0.61
2023-03-02T03:44:48.394Z,-0.59
2023-03-02T03:47:16.883Z,-0.56
2023-03-02T03:49:45.245Z,-0.51
2023-03-02T03:52:13.514Z,-0.46
2023-03-02T03:54:42.279Z,-0.41
2023-03-02T03:57:12.431Z,-0.37
2023-03-02T03:59:41.008Z,-0.32
2023-03-02T04:02:09.277Z,-0.27
2023-03-02T04:04:43.506Z,-0.23
2023-03-02T04:07:15.674Z,-0.18
2023-03-02T04:09:44.771Z,-0.14
2023-03-02T04:12:14.784Z,-0.11
2023-03-02T04:14:52.218Z,-0.08
2023-03-02T04:17:20.503Z,-0.04
2023-03-02T04:19:50.573Z,-0.00
2023-03-02T04:22:20.144Z,0.03
2023-03-02T04:24:49.340Z,0.06
2023-03-02T04:27:18.066Z,0.10
2023-03-02T04:29:46.998Z,0.12
2023-03-02T04:32:15.294Z,0.14
2023-03-02T04:34:45.777Z,0.17
2023-03-02T04:37:16.061Z,0.20
2023-03-02T04:39:47.451Z,0.24
2023-03-02T04:42:15.967Z,0.26
2023-03-02T04:44:44.487Z,0.28
2023-03-02T04:47:13.108Z,0.30
2023-03-02T04:49:41.588Z,0.32
2023-03-02T04:52:10.034Z,0.35
2023-03-02T04:54:38.198Z,0.37
2023-03-02T04:57:08.675Z,0.39
2023-03-02T04:59:36.742Z,0.41
2023-03-02T05:02:05.161Z,0.43
2023-03-02T05:04:33.622Z,0.44
2023-03-02T05:07:01.792Z,0.46
2023-03-02T05:09:31.118Z,0.47
2023-03-02T05:12:00.185Z,0.47
2023-03-02T05:14:29.079Z,0.48
2023-03-02T05:16:57.466Z,0.51
2023-03-02T05:19:26.168Z,0.54
2023-03-02T05:21:54.617Z,0.57
2023-03-02T05:24:22.784Z,0.61
2023-03-02T05:26:51.105Z,0.64
2023-03-02T05:29:19.184Z,0.66
2023-03-02T05:31:48.633Z,0.68
2023-03-02T05:34:22.260Z,0.70
2023-03-02T05:36:50.423Z,0.73
2023-03-02T05:39:18.596Z,0.74
2023-03-02T05:41:49.646Z,0.78
2023-03-02T05:44:17.803Z,0.81
2023-03-02T05:46:45.942Z,0.84
2023-03-02T05:49:14.065Z,0.88
2023-03-02T05:51:42.449Z,0.92
2023-03-02T05:54:10.816Z,0.94
2023-03-02T05:56:39.198Z,0.98
2023-03-02T05:59:08.441Z,1.04
2023-03-02T06:01:37.196Z,1.08
2023-03-02T06:04:05.790Z,1.13
2023-03-02T06:06:34.454Z,1.17
2023-03-02T06:09:03.136Z,1.21
2023-03-02T06:11:31.716Z,1.26
2023-03-02T06:14:03.078Z,1.32
2023-03-02T06:16:34.409Z,1.37
2023-03-02T06:19:03.542Z,1.41
2023-03-02T06:21:35.139Z,1.47
2023-03-02T06:24:03.927Z,1.52
2023-03-02T06:26:32.516Z,1.57
2023-03-02T06:29:00.984Z,1.60
2023-03-02T06:31:29.554Z,1.65
2023-03-02T06:33:57.858Z,1.71
2023-03-02T06:36:26.377Z,1.78
2023-03-02T06:38:54.765Z,1.86
2023-03-02T06:41:22.994Z,1.96
2023-03-02T06:43:51.160Z,2.04
2023-03-02T06:46:19.616Z,2.12
2023-03-02T06:48:48.030Z,2.20
2023-03-02T06:51:16.298Z,2.27
2023-03-02T06:53:44.778Z,2.35
2023-03-02T06:56:13.572Z,2.43
2023-03-02T06:58:42.161Z,2.50
2023-03-02T07:01:10.302Z,2.58
2023-03-02T07:03:38.657Z,2.63
2023-03-02T07:06:07.205Z,2.71
2023-03-02T07:08:35.990Z,2.82
2023-03-02T07:11:08.835Z,2.92
2023-03-02T07:13:41.027Z,3.02
2023-03-02T07:16:14.117Z,3.16
2023-03-02T07:18:42.401Z,3.29
2023-03-02T07:21:10.563Z,3.40
2023-03-02T07:23:38.643Z,3.49
2023-03-02T07:26:08.707Z,3.63
2023-03-02T07:28:42.162Z,3.80
2023-03-02T07:31:11.825Z,3.98
2023-03-02T07:33:40.455Z,4.14
2023-03-02T07:36:08.962Z,4.31
2023-03-02T07:38:38.582Z,4.49
2023-03-02T07:41:08.973Z,4.71
2023-03-02T07:43:38.167Z,4.98
2023-03-02T07:46:06.835Z,5.24
2023-03-02T07:48:36.055Z,5.54
2023-03-02T07:51:06.264Z,5.79
2023-03-02T07:53:34.759Z,6.11
2023-03-02T07:56:11.126Z,6.44
2023-03-02T07:58:39.202Z,6.61
2023-03-02T08:01:07.468Z,6.72
2023-03-02T08:03:37.132Z,6.80
2023-03-02T08:06:10.834Z,6.93
2023-03-02T08:08:39.520Z,7.11
2023-03-02T08:11:16.972Z,7.41
2023-03-02T08:13:46.511Z,7.70
2023-03-02T08:16:16.040Z,7.85
2023-03-02T08:18:44.380Z,8.01
2023-03-02T08:21:18.540Z,8.20
2023-03-02T08:23:46.800Z,8.40
2023-03-02T08:26:17.468Z,8.50
2023-03-02T08:28:47.150Z,8.57
2023-03-02T08:31:16.346Z,8.68
2023-03-02T08:33:48.491Z,8.82
2023-03-02T08:36:19.299Z,9.05
2023-03-02T08:38:48.496Z,9.23
2023-03-02T08:41:17.808Z,9.43
2023-03-02T08:43:46.785Z,9.65
2023-03-02T08:46:18.055Z,9.92
2023-03-02T08:48:47.439Z,10.43
2023-03-02T08:51:19.453Z,10.99
2023-03-02T08:53:55.232Z,11.69
2023-03-02T08:56:23.638Z,12.51
2023-03-02T08:58:53.862Z,13.40
2023-03-02T09:01:25.878Z,14.39
2023-03-02T09:03:54.708Z,14.79
2023-03-02T09:06:22.943Z,15.09
2023-03-02T09:08:51.119Z,15.82
2023-03-02T09:11:19.537Z,15.81
2023-03-02T09:13:48.170Z,15.22
2023-03-02T09:16:17.202Z,15.14
2023-03-02T09:18:45.701Z,15.34
2023-03-02T09:21:14.088Z,15.94
2023-03-02T09:23:42.870Z,16.77
2023-03-02T09:26:11.561Z,17.65
2023-03-02T09:28:40.049Z,19.15
2023-03-02T09:31:09.086Z,20.27
2023-03-02T09:33:37.212Z,20.70
2023-03-02T09:36:07.946Z,19.83
2023-03-02T09:38:36.271Z,18.61
2023-03-02T09:41:19.873Z,17.56
2023-03-02T09:43:59.182Z,16.75
2023-03-02T09:46:50.005Z,15.73
2023-03-02T09:49:43.466Z,14.31
2023-03-02T09:52:33.558Z,14.21
2023-03-02T09:55:24.212Z,14.03
2023-03-02T09:57:55.002Z,13.80
2023-03-02T10:00:29.105Z,13.39
2023-03-02T10:03:14.714Z,13.05
2023-03-02T10:05:53.956Z,13.00
2023-03-02T10:08:28.759Z,13.07
2023-03-02T10:11:05.849Z,13.00
2023-03-02T10:13:45.029Z,12.96
2023-03-02T10:16:36.340Z,12.73
2023-03-02T10:19:07.840Z,12.60
2023-03-02T10:21:52.397Z,12.53
2023-03-02T10:25:09.721Z,12.27
2023-03-02T10:27:44.289Z,12.33
2023-03-02T10:30:19.892Z,12.38
2023-03-02T10:32:50.997Z,12.44
2023-03-02T10:35:23.210Z,12.61
2023-03-02T10:37:56.191Z,12.63
2023-03-02T10:40:48.730Z,12.48
2023-03-02T10:43:39.962Z,12.48
2023-03-02T10:46:10.591Z,12.56
2023-03-02T10:48:51.159Z,12.75
2023-03-02T10:51:29.005Z,12.80
2023-03-02T10:54:10.533Z,12.61
2023-03-02T10:56:42.233Z,12.62
2023-03-02T10:59:30.626Z,12.62
2023-03-02T11:02:24.013Z,12.68
2023-03-02T11:05:00.259Z,12.65
2023-03-02T11:07:29.912Z,12.65
2023-03-02T11:10:05.430Z,12.68
2023-03-02T11:12:37.116Z,12.82
2023-03-02T11:15:29.528Z,12.98
2023-03-02T11:18:02.850Z,13.02
2023-03-02T11:20:41.752Z,12.98
2023-03-02T11:23:48.740Z,12.73
2023-03-02T11:26:39.643Z,12.36
2023-03-02T11:29:22.436Z,12.04
2023-03-02T11:31:57.059Z,11.90
2023-03-02T11:34:40.942Z,12.05
2023-03-02T11:37:30.096Z,12.14
2023-03-02T11:40:01.231Z,12.21
2023-03-02T11:42:39.227Z,12.35
2023-03-02T11:45:13.811Z,12.03
2023-03-02T11:48:01.187Z,11.69
2023-03-02T11:50:32.759Z,11.59
2023-03-02T11:53:07.270Z,11.65
2023-03-02T11:55:45.833Z,11.72
2023-03-02T11:58:21.343Z,11.73
2023-03-02T12:00:50.989Z,11.77
2023-03-02T12:03:28.439Z,11.77
2023-03-02T12:06:03.024Z,11.73
2023-03-02T12:08:31.752Z,11.80
2023-03-02T12:11:07.301Z,11.95
2023-03-02T12:13:40.570Z,12.03
2023-03-02T12:16:37.225Z,12.17
2023-03-02T12:19:25.379Z,12.44
2023-03-02T12:22:07.057Z,12.74
2023-03-02T12:24:37.881Z,13.11
2023-03-02T12:27:23.175Z,13.42
2023-03-02T12:29:55.972Z,13.75
2023-03-02T12:32:29.315Z,13.98
2023-03-02T12:35:12.457Z,14.39
2023-03-02T12:37:53.637Z,15.09
2023-03-02T12:41:04.539Z,15.83
2023-03-02T12:43:44.141Z,16.22
2023-03-02T12:46:33.957Z,16.57
2023-03-02T12:49:37.776Z,17.08
2023-03-02T12:52:30.998Z,17.84
2023-03-02T12:55:20.313Z,18.06
2023-03-02T12:57:54.065Z,18.00
2023-03-02T13:00:30.381Z,17.97
2023-03-02T13:03:00.340Z,18.03
2023-03-02T13:05:32.100Z,17.92
2023-03-02T13:08:06.345Z,17.94
2023-03-02T13:11:03.742Z,18.17
2023-03-02T13:13:39.507Z,18.36
2023-03-02T13:16:28.314Z,18.57
2023-03-02T13:18:59.895Z,18.62
2023-03-02T13:21:41.071Z,18.52
2023-03-02T13:24:34.122Z,18.34
2023-03-02T13:27:08.186Z,17.88
2023-03-02T13:29:36.380Z,17.06
2023-03-02T13:32:35.412Z,16.26
2023-03-02T13:35:04.959Z,15.61
2023-03-02T13:37:40.671Z,15.26
2023-03-02T13:41:02.413Z,15.03
2023-03-02T13:43:30.592Z,14.65
2023-03-02T13:46:02.329Z,14.54
2023-03-02T13:48:31.635Z,14.26
2023-03-02T13:51:03.091Z,13.96
2023-03-02T13:53:38.029Z,13.55
2023-03-02T13:56:07.110Z,13.41
2023-03-02T13:58:40.658Z,13.36
2023-03-02T14:01:11.495Z,13.32
2023-03-02T14:03:39.727Z,13.28
2023-03-02T14:06:08.541Z,13.24
2023-03-02T14:08:37.004Z,13.22
2023-03-02T14:11:06.789Z,13.19
2023-03-02T14:13:41.026Z,13.01
2023-03-02T14:16:14.469Z,12.75
2023-03-02T14:18:52.426Z,12.42
2023-03-02T14:21:24.037Z,12.22
2023-03-02T14:23:53.131Z,12.04
2023-03-02T14:26:44.316Z,11.89
2023-03-02T14:29:27.927Z,11.83
2023-03-02T14:31:58.283Z,11.76
2023-03-02T14:34:26.944Z,11.65
2023-03-02T14:36:59.205Z,11.58
2023-03-02T14:39:53.396Z,11.46
2023-03-02T14:42:23.975Z,11.39
2023-03-02T14:44:52.275Z,11.33
2023-03-02T14:47:21.886Z,11.28
2023-03-02T14:49:50.243Z,11.25
2023-03-02T14:52:35.979Z,11.20
2023-03-02T14:55:28.131Z,11.16
2023-03-02T14:58:06.145Z,11.12
2023-03-02T15:00:34.396Z,11.06
2023-03-02T15:03:02.891Z,10.99
2023-03-02T15:05:32.189Z,10.92
2023-03-02T15:08:00.355Z,10.84
2023-03-02T15:10:28.688Z,10.75
2023-03-02T15:12:57.186Z,10.67
2023-03-02T15:15:26.722Z,10.58
2023-03-02T15:17:55.408Z,10.49
2023-03-02T15:20:23.591Z,10.37
2023-03-02T15:22:52.966Z,10.26
2023-03-02T15:25:24.153Z,10.09
2023-03-02T15:27:53.636Z,9.93
2023-03-02T15:30:23.174Z,9.77
2023-03-02T15:32:53.326Z,9.61
2023-03-02T15:35:24.047Z,9.43
2023-03-02T15:37:53.704Z,9.26
2023-03-02T15:40:21.928Z,9.06
2023-03-02T15:42:53.341Z,8.87
2023-03-02T15:45:21.772Z,8.71
2023-03-02T15:47:50.082Z,8.55
2023-03-02T15:50:18.520Z,8.35
2023-03-02T15:52:46.651Z,8.15
2023-03-02T15:55:15.684Z,7.95
2023-03-02T15:57:44.110Z,7.72
2023-03-02T16:00:13.694Z,7.52
2023-03-02T16:02:42.249Z,7.32
2023-03-02T16:05:10.684Z,7.10
2023-03-02T16:07:39.136Z,6.83
2023-03-02T16:10:08.672Z,6.57
2023-03-02T16:12:36.949Z,6.33
2023-03-02T16:15:05.874Z,6.09
2023-03-02T16:17:34.327Z,5.86
2023-03-02T16:20:03.354Z,5.63
2023-03-02T16:22:31.805Z,5.44
2023-03-02T16:25:03.876Z,5.24
2023-03-02T16:27:39.927Z,5.03
2023-03-02T16:30:16.905Z,4.82
2023-03-02T16:32:45.368Z,4.67
2023-03-02T16:35:14.073Z,4.54
2023-03-02T16:37:42.363Z,4.42
2023-03-02T16:40:18.784Z,4.26
2023-03-02T16:42:47.317Z,4.13
2023-03-02T16:45:15.918Z,3.97
2023-03-02T16:47:44.263Z,3.83
2023-03-02T16:50:13.572Z,3.72
2023-03-02T16:52:41.714Z,3.61
2023-03-02T16:55:16.781Z,3.50
2023-03-02T16:57:45.577Z,3.40
2023-03-02T17:00:16.763Z,3.29
2023-03-02T17:02:45.395Z,3.19
2023-03-02T17:05:21.027Z,3.10
2023-03-02T17:07:49.833Z,3.03
2023-03-02T17:10:21.674Z,2.97
2023-03-02T17:12:50.179Z,2.93
2023-03-02T17:15:18.386Z,2.88
2023-03-02T17:17:46.669Z,2.81
2023-03-02T17:20:15.006Z,2.75
2023-03-02T17:22:43.385Z,2.68
2023-03-02T17:25:12.583Z,2.61
2023-03-02T17:27:40.933Z,2.53
2023-03-02T17:30:12.525Z,2.46
2023-03-02T17:32:41.559Z,2.41
2023-03-02T17:35:12.548Z,2.36
2023-03-02T17:37:41.390Z,2.30
2023-03-02T17:40:13.115Z,2.25
2023-03-02T17:42:41.781Z,2.20
2023-03-02T17:45:18.046Z,2.14
2023-03-02T17:47:46.218Z,2.09
2023-03-02T17:50:14.504Z,2.04
2023-03-02T17:52:43.423Z,1.99
2023-03-02T17:55:12.297Z,1.94
2023-03-02T17:57:41.068Z,1.91
2023-03-02T18:00:13.731Z,1.88
2023-03-02T18:02:42.332Z,1.83
2023-03-02T18:05:11.849Z,1.79
2023-03-02T18:07:40.326Z,1.74
2023-03-02T18:10:09.597Z,1.70
2023-03-02T18:12:38.007Z,1.65
2023-03-02T18:15:07.195Z,1.62
2023-03-02T18:17:35.474Z,1.59
2023-03-02T18:20:04.878Z,1.55
2023-03-02T18:22:33.261Z,1.50
2023-03-02T18:25:01.506Z,1.47
2023-03-02T18:27:29.946Z,1.42
2023-03-02T18:29:58.292Z,1.37
2023-03-02T18:32:26.895Z,1.33
2023-03-02T18:34:55.359Z,1.30
2023-03-02T18:37:23.530Z,1.26
2023-03-02T18:39:51.810Z,1.24
2023-03-02T18:42:19.917Z,1.21
2023-03-02T18:44:48.360Z,1.19
2023-03-02T18:47:18.177Z,1.14
2023-03-02T18:49:46.496Z,1.12
2023-03-02T18:52:16.791Z,1.09
2023-03-02T18:54:46.875Z,1.06
2023-03-02T18:57:15.173Z,1.04
2023-03-02T18:59:43.367Z,1.00
2023-03-02T19:02:14.395Z,0.97
2023-03-02T19:04:42.774Z,0.95
2023-03-02T19:07:11.113Z,0.92
2023-03-02T19:09:39.344Z,0.89
2023-03-02T19:12:07.906Z,0.86
2023-03-02T19:14:36.109Z,0.83
2023-03-02T19:17:04.306Z,0.80
2023-03-02T19:19:32.537Z,0.77
2023-03-02T19:22:01.249Z,0.74
2023-03-02T19:24:29.416Z,0.72
2023-03-02T19:26:57.916Z,0.69
2023-03-02T19:29:26.597Z,0.64
2023-03-02T19:31:58.280Z,0.61
2023-03-02T19:34:27.642Z,0.59
2023-03-02T19:36:55.797Z,0.55
2023-03-02T19:39:23.970Z,0.52
2023-03-02T19:41:52.201Z,0.49
2023-03-02T19:44:20.627Z,0.46
2023-03-02T19:46:48.696Z,0.45
2023-03-02T19:49:17.391Z,0.44
2023-03-02T19:51:45.559Z,0.42
2023-03-02T19:54:13.627Z,0.44
2023-03-02T19:56:43.750Z,0.46
2023-03-02T19:59:12.144Z,0.51
2023-03-02T20:01:40.481Z,0.58
2023-03-02T20:04:08.888Z,0.67
2023-03-02T20:06:37.577Z,0.76
2023-03-02T20:09:07.204Z,0.84
2023-03-02T20:11:36.071Z,0.92
2023-03-02T20:14:04.983Z,1.02
2023-03-02T20:16:35.301Z,1.12
2023-03-02T20:19:05.210Z,1.21
2023-03-02T20:21:34.402Z,1.31
2023-03-02T20:24:02.581Z,1.38
2023-03-02T20:26:31.905Z,1.46
2023-03-02T20:29:02.320Z,1.54
2023-03-02T20:31:33.324Z,1.60
2023-03-02T20:34:05.095Z,1.65
2023-03-02T20:36:35.946Z,1.72
2023-03-02T20:39:09.543Z,1.78
2023-03-02T20:41:38.330Z,1.82
2023-03-02T20:44:07.190Z,1.88
2023-03-02T20:46:39.588Z,1.93
2023-03-02T20:49:12.888Z,1.98
2023-03-02T20:51:45.563Z,2.02
2023-03-02T20:54:13.803Z,2.06
2023-03-02T20:56:42.426Z,2.10
2023-03-02T20:59:11.218Z,2.14
2023-03-02T21:01:39.687Z,2.16
2023-03-02T21:04:08.006Z,2.20
2023-03-02T21:06:36.722Z,2.25
2023-03-02T21:09:07.200Z,2.28
2023-03-02T21:11:36.389Z,2.30
2023-03-02T21:14:04.861Z,2.33
2023-03-02T21:16:38.673Z,2.35
2023-03-02T21:19:11.248Z,2.38
2023-03-02T21:21:42.180Z,2.41
2023-03-02T21:24:13.120Z,2.43
2023-03-02T21:26:41.871Z,2.45
2023-03-02T21:29:12.195Z,2.48
2023-03-02T21:31:42.775Z,2.51
2023-03-02T21:34:12.891Z,2.54
2023-03-02T21:36:42.037Z,2.57
2023-03-02T21:39:12.124Z,2.60
2023-03-02T21:41:40.564Z,2.64
2023-03-02T21:44:09.209Z,2.66
2023-03-02T21:46:39.604Z,2.68
2023-03-02T21:49:08.389Z,2.70
2023-03-02T21:51:37.181Z,2.74
2023-03-02T21:54:05.462Z,2.76
2023-03-02T21:56:33.739Z,2.76
2023-03-02T21:59:02.331Z,2.77
2023-03-02T22:01:33.068Z,2.79
2023-03-02T22:04:01.432Z,2.81
2023-03-02T22:06:32.148Z,2.84
2023-03-02T22:09:01.679Z,2.87
2023-03-02T22:11:33.959Z,2.90
2023-03-02T22:14:12.093Z,2.92
2023-03-02T22:16:42.590Z,2.93
2023-03-02T22:19:38.173Z,2.95
2023-03-02T22:22:24.365Z,2.98
2023-03-02T22:24:54.394Z,3.00
2023-03-02T22:27:27.292Z,3.02
2023-03-02T22:29:59.098Z,3.04
2023-03-02T22:32:30.282Z,3.06
2023-03-02T22:35:02.118Z,3.08
2023-03-02T22:37:34.061Z,3.10
2023-03-02T22:40:18.188Z,3.10
2023-03-02T22:42:46.551Z,3.13
2023-03-02T22:45:17.355Z,3.14
2023-03-02T22:47:51.644Z,3.14
2023-03-02T22:50:29.119Z,3.16
2023-03-02T22:52:59.535Z,3.17
2023-03-02T22:55:35.400Z,3.18
2023-03-02T22:58:32.170Z,3.19
2023-03-02T23:01:02.734Z,3.20
2023-03-02T23:03:40.258Z,3.22
2023-03-02T23:06:26.943Z,3.23
2023-03-02T23:08:58.728Z,3.22
2023-03-02T23:11:28.410Z,3.22
2023-03-02T23:13:56.558Z,3.23
2023-03-02T23:16:27.548Z,3.24
2023-03-02T23:18:59.370Z,3.25
2023-03-02T23:21:35.681Z,3.27
2023-03-02T23:24:04.118Z,3.28
2023-03-02T23:26:32.362Z,3.29
2023-03-02T23:29:01.228Z,3.29
2023-03-02T23:31:29.286Z,3.29
2023-03-02T23:33:58.339Z,3.28
2023-03-02T23:36:27.821Z,3.30
2023-03-02T23:38:55.956Z,3.30
2023-03-02T23:41:24.154Z,3.29
2023-03-02T23:43:52.416Z,3.29
2023-03-02T23:46:20.556Z,3.27
2023-03-02T23:48:49.022Z,3.23
2023-03-02T23:51:17.575Z,3.18
2023-03-02T23:53:45.618Z,3.13
2023-03-02T23:56:14.003Z,3.07
2023-03-02T23:58:42.478Z,3.01
